PGT21X LTFJ-LTAY
Flight info
| Callsign | PGT21X |
|---|---|
| Flight time | 0h 38m |
| Altitude | 25000 |
| Route | ROXUK UN617 ERVAG UT305 TEKDO UW78 RESLI |
| Aircraft | A21N/M-SDE2E3FGHIRWXY/LB1 |
Departure
| Time | 2026-04-20 14:01 |
|---|---|
| Airport | Istanbul Sabiha Gökçen International Airport (LTFJ) |
Arrival
| Time | 2026-04-20 14:39 |
|---|---|
| Airport | Çardak Airport (LTAY) |
| Time | Latitude | Longitude | Altitude | Speed | Heading |
|---|---|---|---|---|---|
| 2026-04-20 13:29 | 40.90860 | 29.31913 | 324 ft | 0 kts | 244° |
| 2026-04-20 13:52 | 40.90868 | 29.31933 | 324 ft | 4 kts | 233° |
| 2026-04-20 13:53 | 40.90887 | 29.31955 | 324 ft | 4 kts | 202° |
| 2026-04-20 13:53 | 40.90910 | 29.31958 | 323 ft | 3 kts | 156° |
| 2026-04-20 13:53 | 40.90913 | 29.31956 | 323 ft | 0 kts | 154° |
| 2026-04-20 13:56 | 40.90910 | 29.31959 | 326 ft | 2 kts | 154° |
| 2026-04-20 13:56 | 40.90894 | 29.31969 | 326 ft | 3 kts | 154° |
| 2026-04-20 13:56 | 40.90867 | 29.31986 | 326 ft | 5 kts | 155° |
| 2026-04-20 13:57 | 40.90842 | 29.32029 | 326 ft | 7 kts | 112° |
| 2026-04-20 13:57 | 40.90804 | 29.32080 | 326 ft | 9 kts | 151° |
| 2026-04-20 13:57 | 40.90741 | 29.32119 | 326 ft | 6 kts | 155° |
| 2026-04-20 13:57 | 40.90715 | 29.32155 | 326 ft | 7 kts | 88° |
| 2026-04-20 13:58 | 40.90737 | 29.32220 | 326 ft | 9 kts | 66° |
| 2026-04-20 13:58 | 40.90705 | 29.32287 | 326 ft | 11 kts | 157° |
| 2026-04-20 13:58 | 40.90642 | 29.32323 | 325 ft | 11 kts | 152° |
| 2026-04-20 13:58 | 40.90595 | 29.32403 | 326 ft | 13 kts | 124° |
| 2026-04-20 13:59 | 40.90516 | 29.32462 | 325 ft | 12 kts | 153° |
| 2026-04-20 13:59 | 40.90449 | 29.32500 | 324 ft | 6 kts | 186° |
| 2026-04-20 13:59 | 40.90421 | 29.32457 | 324 ft | 7 kts | 237° |
| 2026-04-20 13:59 | 40.90407 | 29.32421 | 324 ft | 0 kts | 246° |
| 2026-04-20 14:00 | 40.90406 | 29.32418 | 324 ft | 4 kts | 246° |
| 2026-04-20 14:00 | 40.90296 | 29.32117 | 325 ft | 73 kts | 244° |
| 2026-04-20 14:00 | 40.89978 | 29.31257 | 323 ft | 133 kts | 244° |
| 2026-04-20 14:00 | 40.89509 | 29.30000 | 401 ft | 169 kts | 243° |
| 2026-04-20 14:01 | 40.88967 | 29.28564 | 839 ft | 180 kts | 242° |
| 2026-04-20 14:01 | 40.88400 | 29.27053 | 1423 ft | 187 kts | 244° |
| 2026-04-20 14:01 | 40.87818 | 29.25470 | 2006 ft | 196 kts | 244° |
| 2026-04-20 14:01 | 40.87229 | 29.23783 | 2583 ft | 211 kts | 244° |
| 2026-04-20 14:02 | 40.86575 | 29.21917 | 3082 ft | 236 kts | 244° |
| 2026-04-20 14:02 | 40.85852 | 29.19889 | 3668 ft | 250 kts | 244° |
| 2026-04-20 14:02 | 40.85028 | 29.17870 | 4395 ft | 252 kts | 233° |
| 2026-04-20 14:02 | 40.83695 | 29.16384 | 5293 ft | 255 kts | 205° |
| 2026-04-20 14:03 | 40.81931 | 29.15925 | 6011 ft | 269 kts | 176° |
| 2026-04-20 14:03 | 40.80141 | 29.16643 | 6746 ft | 277 kts | 156° |
| 2026-04-20 14:03 | 40.78403 | 29.17797 | 7571 ft | 282 kts | 154° |
| 2026-04-20 14:03 | 40.76642 | 29.18978 | 8441 ft | 286 kts | 154° |
| 2026-04-20 14:04 | 40.74843 | 29.20158 | 9320 ft | 290 kts | 155° |
| 2026-04-20 14:04 | 40.73012 | 29.21335 | 10178 ft | 295 kts | 155° |
| 2026-04-20 14:04 | 40.71105 | 29.22540 | 10636 ft | 314 kts | 155° |
| 2026-04-20 14:04 | 40.69062 | 29.23811 | 11001 ft | 335 kts | 155° |
| 2026-04-20 14:05 | 40.66920 | 29.25142 | 11621 ft | 345 kts | 155° |
| 2026-04-20 14:05 | 40.64734 | 29.26508 | 12394 ft | 350 kts | 155° |
| 2026-04-20 14:05 | 40.62515 | 29.27892 | 13182 ft | 355 kts | 155° |
| 2026-04-20 14:05 | 40.60260 | 29.29298 | 13916 ft | 363 kts | 155° |
| 2026-04-20 14:06 | 40.57932 | 29.30748 | 14326 ft | 377 kts | 155° |
| 2026-04-20 14:06 | 40.55543 | 29.32236 | 14943 ft | 383 kts | 155° |
| 2026-04-20 14:06 | 40.53122 | 29.33746 | 15628 ft | 386 kts | 155° |
| 2026-04-20 14:06 | 40.50687 | 29.35261 | 16314 ft | 389 kts | 155° |
| 2026-04-20 14:07 | 40.48272 | 29.36825 | 16961 ft | 393 kts | 150° |
| 2026-04-20 14:07 | 40.46032 | 29.38914 | 17604 ft | 397 kts | 142° |
| 2026-04-20 14:07 | 40.43865 | 29.41192 | 18237 ft | 401 kts | 141° |
| 2026-04-20 14:07 | 40.41680 | 29.43502 | 18784 ft | 404 kts | 141° |
| 2026-04-20 14:08 | 40.39475 | 29.45821 | 19320 ft | 408 kts | 141° |
| 2026-04-20 14:08 | 40.37247 | 29.48155 | 19858 ft | 411 kts | 141° |
| 2026-04-20 14:08 | 40.35002 | 29.50502 | 20391 ft | 414 kts | 141° |
| 2026-04-20 14:08 | 40.32733 | 29.52872 | 20912 ft | 418 kts | 142° |
| 2026-04-20 14:09 | 40.30447 | 29.55250 | 21442 ft | 421 kts | 142° |
| 2026-04-20 14:09 | 40.28142 | 29.57641 | 21990 ft | 423 kts | 142° |
| 2026-04-20 14:09 | 40.25832 | 29.60037 | 22670 ft | 423 kts | 142° |
| 2026-04-20 14:09 | 40.23535 | 29.62428 | 23369 ft | 422 kts | 142° |
| 2026-04-20 14:10 | 40.21156 | 29.64562 | 23970 ft | 420 kts | 154° |
| 2026-04-20 14:10 | 40.18419 | 29.65823 | 24494 ft | 418 kts | 169° |
| 2026-04-20 14:10 | 40.15533 | 29.66460 | 24835 ft | 424 kts | 173° |
| 2026-04-20 14:10 | 40.12603 | 29.67011 | 24986 ft | 426 kts | 173° |
| 2026-04-20 14:11 | 40.09662 | 29.67577 | 25001 ft | 429 kts | 173° |
| 2026-04-20 14:11 | 40.06664 | 29.68184 | 24997 ft | 443 kts | 173° |
| 2026-04-20 14:11 | 40.03566 | 29.68822 | 24989 ft | 457 kts | 172° |
| 2026-04-20 14:11 | 40.00378 | 29.69482 | 24984 ft | 471 kts | 172° |
| 2026-04-20 14:12 | 39.97099 | 29.70166 | 24981 ft | 481 kts | 172° |
| 2026-04-20 14:12 | 39.93783 | 29.70863 | 24975 ft | 482 kts | 172° |
| 2026-04-20 14:12 | 39.90472 | 29.71575 | 24971 ft | 482 kts | 171° |
| 2026-04-20 14:12 | 39.87254 | 29.72803 | 24959 ft | 484 kts | 159° |
| 2026-04-20 14:13 | 39.84149 | 29.74524 | 24964 ft | 485 kts | 157° |
| 2026-04-20 14:13 | 39.82110 | 29.75701 | 24965 ft | 485 kts | 157° |
| 2026-04-20 14:13 | 39.79027 | 29.77481 | 24958 ft | 484 kts | 157° |
| 2026-04-20 14:13 | 39.75933 | 29.79243 | 24960 ft | 484 kts | 158° |
| 2026-04-20 14:14 | 39.72838 | 29.80986 | 24960 ft | 484 kts | 158° |
| 2026-04-20 14:14 | 39.69748 | 29.82725 | 24956 ft | 484 kts | 158° |
| 2026-04-20 14:14 | 39.66655 | 29.84466 | 24959 ft | 484 kts | 158° |
| 2026-04-20 14:14 | 39.63566 | 29.86198 | 24959 ft | 484 kts | 158° |
| 2026-04-20 14:15 | 39.60472 | 29.87928 | 24958 ft | 484 kts | 158° |
| 2026-04-20 14:15 | 39.57381 | 29.89657 | 24959 ft | 484 kts | 158° |
| 2026-04-20 14:15 | 39.54288 | 29.91394 | 24958 ft | 485 kts | 158° |
| 2026-04-20 14:15 | 39.51191 | 29.93128 | 24958 ft | 485 kts | 158° |
| 2026-04-20 14:16 | 39.48099 | 29.94876 | 24958 ft | 485 kts | 158° |
| 2026-04-20 14:16 | 39.45051 | 29.96608 | 24959 ft | 485 kts | 158° |
| 2026-04-20 14:16 | 39.41962 | 29.98360 | 24957 ft | 485 kts | 158° |
| 2026-04-20 14:16 | 39.38875 | 30.00102 | 24957 ft | 484 kts | 158° |
| 2026-04-20 14:17 | 39.35787 | 30.01845 | 24955 ft | 484 kts | 158° |
| 2026-04-20 14:17 | 39.32695 | 30.03580 | 24951 ft | 484 kts | 158° |
| 2026-04-20 14:17 | 39.29606 | 30.05318 | 24954 ft | 484 kts | 158° |
| 2026-04-20 14:17 | 39.26514 | 30.07060 | 24963 ft | 484 kts | 158° |
| 2026-04-20 14:18 | 39.23423 | 30.08800 | 24962 ft | 485 kts | 158° |
| 2026-04-20 14:18 | 39.20331 | 30.10538 | 24964 ft | 484 kts | 158° |
| 2026-04-20 14:18 | 39.17243 | 30.12271 | 24961 ft | 484 kts | 158° |
| 2026-04-20 14:18 | 39.14159 | 30.14000 | 24958 ft | 483 kts | 158° |
| 2026-04-20 14:19 | 39.11071 | 30.15721 | 24959 ft | 483 kts | 158° |
| 2026-04-20 14:19 | 39.07967 | 30.17365 | 24954 ft | 482 kts | 163° |
| 2026-04-20 14:19 | 39.04701 | 30.18209 | 24955 ft | 478 kts | 178° |
| 2026-04-20 14:19 | 39.01391 | 30.18193 | 24969 ft | 476 kts | 184° |
| 2026-04-20 14:20 | 38.98081 | 30.18017 | 24970 ft | 475 kts | 185° |
| 2026-04-20 14:20 | 38.94779 | 30.17853 | 24968 ft | 476 kts | 184° |
| 2026-04-20 14:20 | 38.91480 | 30.17714 | 24946 ft | 468 kts | 184° |
| 2026-04-20 14:20 | 38.88293 | 30.17600 | 24783 ft | 449 kts | 184° |
| 2026-04-20 14:21 | 38.85223 | 30.17493 | 24570 ft | 434 kts | 184° |
| 2026-04-20 14:21 | 38.82273 | 30.17390 | 24069 ft | 427 kts | 184° |
| 2026-04-20 14:21 | 38.79315 | 30.17283 | 23377 ft | 425 kts | 184° |
| 2026-04-20 14:21 | 38.76362 | 30.17176 | 22637 ft | 422 kts | 184° |
| 2026-04-20 14:22 | 38.74011 | 30.17091 | 22122 ft | 419 kts | 184° |
| 2026-04-20 14:25 | 38.71517 | 30.17003 | 21531 ft | 416 kts | 184° |
| 2026-04-20 14:25 | 38.68633 | 30.16898 | 20881 ft | 413 kts | 184° |
| 2026-04-20 14:26 | 38.65815 | 30.16795 | 20247 ft | 409 kts | 184° |
| 2026-04-20 14:26 | 38.62981 | 30.16694 | 19658 ft | 405 kts | 184° |
| 2026-04-20 14:26 | 38.60168 | 30.16596 | 19043 ft | 402 kts | 183° |
| 2026-04-20 14:26 | 38.57380 | 30.16498 | 18411 ft | 400 kts | 183° |
| 2026-04-20 14:27 | 38.54603 | 30.16399 | 17799 ft | 395 kts | 183° |
| 2026-04-20 14:27 | 38.51870 | 30.16303 | 16951 ft | 391 kts | 183° |
| 2026-04-20 14:27 | 38.49160 | 30.16205 | 16148 ft | 387 kts | 183° |
| 2026-04-20 14:27 | 38.46478 | 30.16110 | 15348 ft | 384 kts | 183° |
| 2026-04-20 14:28 | 38.43826 | 30.16017 | 14594 ft | 380 kts | 183° |
| 2026-04-20 14:28 | 38.41196 | 30.15924 | 13919 ft | 375 kts | 183° |
| 2026-04-20 14:28 | 38.38626 | 30.15834 | 13470 ft | 365 kts | 183° |
| 2026-04-20 14:28 | 38.36109 | 30.15715 | 13104 ft | 357 kts | 186° |
| 2026-04-20 14:29 | 38.33745 | 30.15153 | 12763 ft | 346 kts | 200° |
| 2026-04-20 14:29 | 38.31595 | 30.13881 | 12450 ft | 339 kts | 213° |
| 2026-04-20 14:29 | 38.29559 | 30.12391 | 12130 ft | 337 kts | 207° |
| 2026-04-20 14:29 | 38.27352 | 30.11400 | 11820 ft | 337 kts | 196° |
| 2026-04-20 14:30 | 38.25062 | 30.10775 | 11506 ft | 336 kts | 192° |
| 2026-04-20 14:30 | 38.22775 | 30.10222 | 11202 ft | 333 kts | 192° |
| 2026-04-20 14:30 | 38.20506 | 30.09673 | 10929 ft | 331 kts | 192° |
| 2026-04-20 14:30 | 38.18274 | 30.09122 | 10684 ft | 322 kts | 192° |
| 2026-04-20 14:31 | 38.16105 | 30.08581 | 10467 ft | 314 kts | 192° |
| 2026-04-20 14:31 | 38.14004 | 30.08053 | 10410 ft | 303 kts | 192° |
| 2026-04-20 14:31 | 38.11938 | 30.07532 | 10423 ft | 302 kts | 192° |
| 2026-04-20 14:31 | 38.09878 | 30.07011 | 10443 ft | 301 kts | 192° |
| 2026-04-20 14:32 | 38.07825 | 30.06491 | 10453 ft | 301 kts | 192° |
| 2026-04-20 14:32 | 38.05784 | 30.05976 | 10273 ft | 298 kts | 193° |
| 2026-04-20 14:32 | 38.03723 | 30.05453 | 9674 ft | 305 kts | 192° |
| 2026-04-20 14:32 | 38.01663 | 30.04926 | 9409 ft | 298 kts | 192° |
| 2026-04-20 14:33 | 37.99657 | 30.04414 | 9213 ft | 288 kts | 193° |
| 2026-04-20 14:33 | 37.97728 | 30.03922 | 8994 ft | 279 kts | 193° |
| 2026-04-20 14:33 | 37.95836 | 30.03425 | 8611 ft | 276 kts | 196° |
| 2026-04-20 14:33 | 37.94098 | 30.02488 | 8197 ft | 270 kts | 218° |
| 2026-04-20 14:34 | 37.92882 | 30.00736 | 7758 ft | 263 kts | 242° |
| 2026-04-20 14:34 | 37.91984 | 29.98731 | 7343 ft | 261 kts | 243° |
| 2026-04-20 14:34 | 37.91103 | 29.96728 | 6967 ft | 259 kts | 243° |
| 2026-04-20 14:34 | 37.90222 | 29.94777 | 6642 ft | 250 kts | 242° |
| 2026-04-20 14:35 | 37.89381 | 29.92947 | 6331 ft | 238 kts | 242° |
| 2026-04-20 14:35 | 37.88560 | 29.91177 | 6088 ft | 220 kts | 243° |
| 2026-04-20 14:35 | 37.87807 | 29.89568 | 5931 ft | 208 kts | 243° |
| 2026-04-20 14:35 | 37.87082 | 29.88024 | 5597 ft | 206 kts | 243° |
| 2026-04-20 14:36 | 37.86347 | 29.86470 | 5234 ft | 206 kts | 242° |
| 2026-04-20 14:36 | 37.85609 | 29.84916 | 4916 ft | 205 kts | 242° |
| 2026-04-20 14:36 | 37.84876 | 29.83367 | 4845 ft | 204 kts | 242° |
| 2026-04-20 14:36 | 37.84168 | 29.81891 | 4723 ft | 193 kts | 241° |
| 2026-04-20 14:37 | 37.83478 | 29.80443 | 4478 ft | 190 kts | 241° |
| 2026-04-20 14:37 | 37.82798 | 29.79015 | 4201 ft | 190 kts | 242° |
| 2026-04-20 14:37 | 37.82147 | 29.77650 | 3918 ft | 170 kts | 240° |
| 2026-04-20 14:37 | 37.81583 | 29.76466 | 3667 ft | 147 kts | 239° |
| 2026-04-20 14:38 | 37.81060 | 29.75368 | 3474 ft | 146 kts | 238° |
| 2026-04-20 14:38 | 37.80536 | 29.74268 | 3293 ft | 145 kts | 237° |
| 2026-04-20 14:38 | 37.80011 | 29.73174 | 3114 ft | 145 kts | 237° |
| 2026-04-20 14:38 | 37.79490 | 29.72074 | 2890 ft | 146 kts | 236° |
| 2026-04-20 14:39 | 37.78976 | 29.71000 | 2779 ft | 132 kts | 239° |
| 2026-04-20 14:39 | 37.78582 | 29.70176 | 2784 ft | 85 kts | 237° |
| 2026-04-20 14:39 | 37.78369 | 29.69726 | 2789 ft | 40 kts | 239° |
| 2026-04-20 14:39 | 37.78220 | 29.69415 | 2788 ft | 41 kts | 238° |
| 2026-04-20 14:40 | 37.78078 | 29.69119 | 2795 ft | 26 kts | 239° |
| 2026-04-20 14:40 | 37.77987 | 29.68928 | 2792 ft | 26 kts | 238° |
| 2026-04-20 14:40 | 37.77910 | 29.68768 | 2792 ft | 8 kts | 238° |
| 2026-04-20 14:40 | 37.77870 | 29.68711 | 2798 ft | 10 kts | 202° |
| 2026-04-20 14:41 | 37.77800 | 29.68739 | 2796 ft | 12 kts | 150° |
| 2026-04-20 14:41 | 37.77722 | 29.68793 | 2796 ft | 14 kts | 148° |
| 2026-04-20 14:41 | 37.77636 | 29.68861 | 2792 ft | 15 kts | 149° |
| 2026-04-20 14:41 | 37.77542 | 29.68929 | 2793 ft | 7 kts | 152° |
| 2026-04-20 14:42 | 37.77506 | 29.68955 | 2799 ft | 4 kts | 150° |
| 2026-04-20 14:42 | 37.77490 | 29.68966 | 2794 ft | 0 kts | 151° |
| 2026-04-20 14:46 | 37.79694 | 29.71055 | 2776 ft | 0 kts | 358° |
| 2026-04-20 14:48 | 37.77482 | 29.68987 | 2796 ft | 0 kts | 124° |
| 2026-04-20 14:48 | 37.77482 | 29.68986 | 2796 ft | 0 kts | 124° |
| 2026-04-20 14:48 | 37.77482 | 29.68987 | 2796 ft | 0 kts | 124° |
| 2026-04-20 14:49 | 37.77483 | 29.68986 | 2798 ft | 0 kts | 126° |
| 2026-04-20 14:49 | 37.77483 | 29.68985 | 2799 ft | 0 kts | 126° |
| 2026-04-20 14:50 | 37.77482 | 29.68987 | 2796 ft | 0 kts | 124° |
| 2026-04-20 14:50 | 37.77482 | 29.68986 | 2796 ft | 0 kts | 124° |
| 2026-04-20 14:50 | 37.77483 | 29.68985 | 2799 ft | 0 kts | 126° |
| 2026-04-20 14:50 | 37.77484 | 29.68985 | 2796 ft | 0 kts | 126° |